Airfield :
LOGIN :

Register | Disclaimer

   EN    FR    IT 

 










Legend :    VFR   Marginal VFR   IFR   Intensive IFR   Very Intensive IFR
Visi :
Ceiling :
>= 8 km
>= 3000ft
5 to 8 km
1000 to 3000 ft
1500m to 5 km
500 to 1000 ft
800 to 1500m
200 to 500 ft
< 800m
< 200 ft
Symbols :   Thunderstorms  Fog  Heavy snow  Heavy precipitations  Wind > 20 kt
SIGMETs :     Misc.  Thunderstorms  Icing  Turbulence  Mountain Waves  Volcanic Ashes






- Airport Elevation : 13 ft
- IATA code : OST


EBOS - Oostend bruges Int.

CURRENT METAR :
  • 281950Z 36009KT 9999 FEW026 11/05 Q1022 NOSIG

EXPIRED METARs :
  • 281920Z 01010KT 9999 FEW026 11/04 Q1022 NOSIG
  • 281850Z 36010KT 330V030 9999 FEW026 12/04 Q1023 NOSIG
  • 281820Z 02009KT 340V040 9999 FEW026 12/05 Q1023 NOSIG
  • 281750Z 01010KT 340V040 9999 FEW026 12/05 Q1023 NOSIG
  • 281720Z 36009KT 9999 FEW028 13/05 Q1023 NOSIG

TAF TAF EBOS
Valid from the 28 at 18:00 until the 30 at 00:00 UTC


281710Z 2818/2924 01011KT 9999 FEW025
PROB30
TEMPO 2909/2917 01015G25KT 4000 SHRA BKN014TCU



MET'MAP, your aeronautical weather chart ! - Copyright ORBIFLY December 2007 - Disclaimer

ORBIFLY MET'MAP TEAM :

Programming & Development : Alexandra Zaïnal
Original concept : Baudouin d'Aumeries
Technical & hardware support : Manuel Goepfert
Assistance : Marc-Olivier Méhu

Contact : metmap@orbifly.com




SOURCES & CREDITS :

   NOAA